sensor_id;sensor_type;location;lat;lon;timestamp;temperature;humidity
29939;DHT22;16799;50.844;5.304;2022-07-23T00:00:05;18.60;99.90
29939;DHT22;16799;50.844;5.304;2022-07-23T00:02:31;18.60;99.90
29939;DHT22;16799;50.844;5.304;2022-07-23T00:04:57;18.60;99.90
29939;DHT22;16799;50.844;5.304;2022-07-23T00:07:22;18.60;99.90
29939;DHT22;16799;50.844;5.304;2022-07-23T00:09:48;18.50;99.90
29939;DHT22;16799;50.844;5.304;2022-07-23T00:12:14;18.40;99.90
29939;DHT22;16799;50.844;5.304;2022-07-23T00:14:39;18.20;99.90
29939;DHT22;16799;50.844;5.304;2022-07-23T00:17:05;18.20;99.90
29939;DHT22;16799;50.844;5.304;2022-07-23T00:19:31;18.30;99.90
29939;DHT22;16799;50.844;5.304;2022-07-23T00:21:56;18.30;99.90
29939;DHT22;16799;50.844;5.304;2022-07-23T00:24:22;18.30;99.90
29939;DHT22;16799;50.844;5.304;2022-07-23T00:26:48;18.20;99.90
29939;DHT22;16799;50.844;5.304;2022-07-23T00:29:13;18.20;99.90
29939;DHT22;16799;50.844;5.304;2022-07-23T00:31:39;18.30;99.90
29939;DHT22;16799;50.844;5.304;2022-07-23T00:34:05;18.10;99.90
29939;DHT22;16799;50.844;5.304;2022-07-23T00:36:30;18.20;99.90
29939;DHT22;16799;50.844;5.304;2022-07-23T00:38:59;18.00;99.90
29939;DHT22;16799;50.844;5.304;2022-07-23T00:41:24;17.90;99.90
29939;DHT22;16799;50.844;5.304;2022-07-23T00:43:50;17.90;99.90
29939;DHT22;16799;50.844;5.304;2022-07-23T00:46:20;17.90;99.90
29939;DHT22;16799;50.844;5.304;2022-07-23T00:48:45;17.90;99.90
29939;DHT22;16799;50.844;5.304;2022-07-23T00:51:11;17.90;99.90
29939;DHT22;16799;50.844;5.304;2022-07-23T00:53:37;17.70;99.90
29939;DHT22;16799;50.844;5.304;2022-07-23T00:56:03;17.70;99.90
29939;DHT22;16799;50.844;5.304;2022-07-23T00:58:28;17.60;99.90
29939;DHT22;16799;50.844;5.304;2022-07-23T01:00:54;17.70;99.90
29939;DHT22;16799;50.844;5.304;2022-07-23T01:03:20;17.70;99.90
29939;DHT22;16799;50.844;5.304;2022-07-23T01:05:46;17.80;99.90
29939;DHT22;16799;50.844;5.304;2022-07-23T01:08:12;17.80;99.90
29939;DHT22;16799;50.844;5.304;2022-07-23T01:10:38;17.80;99.90
29939;DHT22;16799;50.844;5.304;2022-07-23T01:13:06;17.70;99.90
29939;DHT22;16799;50.844;5.304;2022-07-23T01:15:34;17.60;99.90
29939;DHT22;16799;50.844;5.304;2022-07-23T01:18:00;17.20;99.90
29939;DHT22;16799;50.844;5.304;2022-07-23T01:20:26;17.30;99.90
29939;DHT22;16799;50.844;5.304;2022-07-23T01:22:53;17.40;99.90
29939;DHT22;16799;50.844;5.304;2022-07-23T01:25:19;17.50;99.90
29939;DHT22;16799;50.844;5.304;2022-07-23T01:27:45;17.50;99.90
29939;DHT22;16799;50.844;5.304;2022-07-23T01:30:11;17.50;99.90
29939;DHT22;16799;50.844;5.304;2022-07-23T01:32:38;17.40;99.90
29939;DHT22;16799;50.844;5.304;2022-07-23T01:35:04;17.40;99.90
29939;DHT22;16799;50.844;5.304;2022-07-23T01:37:30;17.40;99.90
29939;DHT22;16799;50.844;5.304;2022-07-23T01:39:56;17.40;99.90
29939;DHT22;16799;50.844;5.304;2022-07-23T01:42:22;17.40;99.90
29939;DHT22;16799;50.844;5.304;2022-07-23T01:44:48;17.40;99.90
29939;DHT22;16799;50.844;5.304;2022-07-23T01:47:14;17.30;99.90
29939;DHT22;16799;50.844;5.304;2022-07-23T01:49:40;17.30;99.90
29939;DHT22;16799;50.844;5.304;2022-07-23T01:52:05;17.30;99.90
29939;DHT22;16799;50.844;5.304;2022-07-23T01:54:34;17.20;99.90
29939;DHT22;16799;50.844;5.304;2022-07-23T01:57:00;17.20;99.90
29939;DHT22;16799;50.844;5.304;2022-07-23T01:59:27;17.20;99.90
29939;DHT22;16799;50.844;5.304;2022-07-23T02:01:53;17.10;99.90
29939;DHT22;16799;50.844;5.304;2022-07-23T02:04:20;17.00;99.90
29939;DHT22;16799;50.844;5.304;2022-07-23T02:06:46;16.90;99.90
29939;DHT22;16799;50.844;5.304;2022-07-23T02:09:12;16.90;99.90
29939;DHT22;16799;50.844;5.304;2022-07-23T02:11:38;16.80;99.90
29939;DHT22;16799;50.844;5.304;2022-07-23T02:14:04;16.70;99.90
29939;DHT22;16799;50.844;5.304;2022-07-23T02:16:29;16.60;99.90
29939;DHT22;16799;50.844;5.304;2022-07-23T02:18:55;16.60;99.90
29939;DHT22;16799;50.844;5.304;2022-07-23T02:21:21;16.70;99.90
29939;DHT22;16799;50.844;5.304;2022-07-23T02:23:46;16.80;99.90
29939;DHT22;16799;50.844;5.304;2022-07-23T02:26:12;16.80;99.90
29939;DHT22;16799;50.844;5.304;2022-07-23T02:28:38;16.80;99.90
29939;DHT22;16799;50.844;5.304;2022-07-23T02:31:04;16.80;99.90
29939;DHT22;16799;50.844;5.304;2022-07-23T02:33:29;16.70;99.90
29939;DHT22;16799;50.844;5.304;2022-07-23T02:35:55;16.60;99.90
29939;DHT22;16799;50.844;5.304;2022-07-23T02:38:21;16.60;99.90
29939;DHT22;16799;50.844;5.304;2022-07-23T02:40:47;16.50;99.90
29939;DHT22;16799;50.844;5.304;2022-07-23T02:43:12;16.60;99.90
29939;DHT22;16799;50.844;5.304;2022-07-23T02:45:38;16.50;99.90
29939;DHT22;16799;50.844;5.304;2022-07-23T02:48:04;16.50;99.90
29939;DHT22;16799;50.844;5.304;2022-07-23T02:50:29;16.60;99.90
29939;DHT22;16799;50.844;5.304;2022-07-23T02:52:55;16.80;99.90
29939;DHT22;16799;50.844;5.304;2022-07-23T02:55:21;16.80;99.90
29939;DHT22;16799;50.844;5.304;2022-07-23T02:57:46;16.70;99.90
29939;DHT22;16799;50.844;5.304;2022-07-23T03:00:12;16.80;99.90
29939;DHT22;16799;50.844;5.304;2022-07-23T03:02:38;16.60;99.90
29939;DHT22;16799;50.844;5.304;2022-07-23T03:05:04;16.40;99.90
29939;DHT22;16799;50.844;5.304;2022-07-23T03:07:29;16.30;99.90
29939;DHT22;16799;50.844;5.304;2022-07-23T03:09:55;16.40;99.90
29939;DHT22;16799;50.844;5.304;2022-07-23T03:12:21;16.50;99.90
29939;DHT22;16799;50.844;5.304;2022-07-23T03:14:46;16.40;99.90
29939;DHT22;16799;50.844;5.304;2022-07-23T03:17:12;16.40;99.90
29939;DHT22;16799;50.844;5.304;2022-07-23T03:19:38;16.40;99.90
29939;DHT22;16799;50.844;5.304;2022-07-23T03:22:04;16.50;99.90
29939;DHT22;16799;50.844;5.304;2022-07-23T03:24:30;16.40;99.90
29939;DHT22;16799;50.844;5.304;2022-07-23T03:27:14;16.40;99.90
29939;DHT22;16799;50.844;5.304;2022-07-23T03:29:40;16.20;99.90
29939;DHT22;16799;50.844;5.304;2022-07-23T03:32:05;16.00;99.90
29939;DHT22;16799;50.844;5.304;2022-07-23T03:34:31;16.00;99.90
29939;DHT22;16799;50.844;5.304;2022-07-23T03:36:57;15.70;99.90
29939;DHT22;16799;50.844;5.304;2022-07-23T03:39:23;15.60;99.90
29939;DHT22;16799;50.844;5.304;2022-07-23T03:41:48;15.70;99.90
29939;DHT22;16799;50.844;5.304;2022-07-23T03:44:14;15.70;99.90
29939;DHT22;16799;50.844;5.304;2022-07-23T03:46:39;15.90;99.90
29939;DHT22;16799;50.844;5.304;2022-07-23T03:49:05;16.00;99.90
29939;DHT22;16799;50.844;5.304;2022-07-23T03:51:31;16.00;99.90
29939;DHT22;16799;50.844;5.304;2022-07-23T03:53:57;16.00;99.90
29939;DHT22;16799;50.844;5.304;2022-07-23T03:56:23;16.00;99.90
29939;DHT22;16799;50.844;5.304;2022-07-23T03:58:49;15.90;99.90
29939;DHT22;16799;50.844;5.304;2022-07-23T04:01:14;15.80;99.90
29939;DHT22;16799;50.844;5.304;2022-07-23T04:03:40;15.70;99.90
29939;DHT22;16799;50.844;5.304;2022-07-23T04:06:06;15.60;99.90
29939;DHT22;16799;50.844;5.304;2022-07-23T04:08:32;15.30;99.90
29939;DHT22;16799;50.844;5.304;2022-07-23T04:10:58;15.10;99.90
29939;DHT22;16799;50.844;5.304;2022-07-23T04:13:23;14.90;99.90
29939;DHT22;16799;50.844;5.304;2022-07-23T04:15:49;14.80;99.90
29939;DHT22;16799;50.844;5.304;2022-07-23T04:18:17;14.80;99.90
29939;DHT22;16799;50.844;5.304;2022-07-23T04:20:43;14.70;99.90
29939;DHT22;16799;50.844;5.304;2022-07-23T04:23:09;14.80;99.90
29939;DHT22;16799;50.844;5.304;2022-07-23T04:25:35;15.10;99.90
29939;DHT22;16799;50.844;5.304;2022-07-23T04:28:01;15.40;99.90
29939;DHT22;16799;50.844;5.304;2022-07-23T04:30:27;15.40;99.90
29939;DHT22;16799;50.844;5.304;2022-07-23T04:32:53;15.60;99.90
29939;DHT22;16799;50.844;5.304;2022-07-23T04:35:19;15.60;99.90
29939;DHT22;16799;50.844;5.304;2022-07-23T04:37:44;15.80;99.90
29939;DHT22;16799;50.844;5.304;2022-07-23T04:40:11;15.80;99.90
29939;DHT22;16799;50.844;5.304;2022-07-23T04:42:37;15.80;99.90
29939;DHT22;16799;50.844;5.304;2022-07-23T04:45:03;15.90;99.90
29939;DHT22;16799;50.844;5.304;2022-07-23T04:47:29;16.00;99.90
29939;DHT22;16799;50.844;5.304;2022-07-23T04:49:56;16.20;99.90
29939;DHT22;16799;50.844;5.304;2022-07-23T04:52:22;16.20;99.90
29939;DHT22;16799;50.844;5.304;2022-07-23T04:54:48;16.30;99.90
29939;DHT22;16799;50.844;5.304;2022-07-23T04:57:13;16.40;99.90
29939;DHT22;16799;50.844;5.304;2022-07-23T04:59:39;16.50;99.90
29939;DHT22;16799;50.844;5.304;2022-07-23T05:02:04;16.60;99.90
29939;DHT22;16799;50.844;5.304;2022-07-23T05:04:30;16.70;99.90
29939;DHT22;16799;50.844;5.304;2022-07-23T05:06:57;16.60;99.90
29939;DHT22;16799;50.844;5.304;2022-07-23T05:09:22;16.60;99.90
29939;DHT22;16799;50.844;5.304;2022-07-23T05:11:48;16.70;99.90
29939;DHT22;16799;50.844;5.304;2022-07-23T05:14:13;16.80;99.90
29939;DHT22;16799;50.844;5.304;2022-07-23T05:16:39;16.70;99.90
29939;DHT22;16799;50.844;5.304;2022-07-23T05:19:05;16.80;99.90
29939;DHT22;16799;50.844;5.304;2022-07-23T05:21:31;16.90;99.90
29939;DHT22;16799;50.844;5.304;2022-07-23T05:23:56;17.00;99.90
29939;DHT22;16799;50.844;5.304;2022-07-23T05:26:22;16.90;99.90
29939;DHT22;16799;50.844;5.304;2022-07-23T05:28:48;17.00;99.90
29939;DHT22;16799;50.844;5.304;2022-07-23T05:31:14;17.10;99.90
29939;DHT22;16799;50.844;5.304;2022-07-23T05:33:39;17.40;99.90
29939;DHT22;16799;50.844;5.304;2022-07-23T05:36:05;17.50;99.90
29939;DHT22;16799;50.844;5.304;2022-07-23T05:38:32;17.70;99.90
29939;DHT22;16799;50.844;5.304;2022-07-23T05:40:58;17.80;99.90
29939;DHT22;16799;50.844;5.304;2022-07-23T05:43:24;18.00;99.90
29939;DHT22;16799;50.844;5.304;2022-07-23T05:45:49;18.10;99.90
29939;DHT22;16799;50.844;5.304;2022-07-23T05:48:15;18.10;99.90
29939;DHT22;16799;50.844;5.304;2022-07-23T05:50:41;18.10;99.90
29939;DHT22;16799;50.844;5.304;2022-07-23T05:53:06;18.10;99.90
29939;DHT22;16799;50.844;5.304;2022-07-23T05:55:32;18.20;99.90
29939;DHT22;16799;50.844;5.304;2022-07-23T05:57:59;18.30;99.90
29939;DHT22;16799;50.844;5.304;2022-07-23T06:00:25;18.60;99.90
29939;DHT22;16799;50.844;5.304;2022-07-23T06:02:51;18.60;99.90
29939;DHT22;16799;50.844;5.304;2022-07-23T06:05:17;18.70;99.90
29939;DHT22;16799;50.844;5.304;2022-07-23T06:07:43;18.80;99.90
29939;DHT22;16799;50.844;5.304;2022-07-23T06:10:09;18.90;99.90
29939;DHT22;16799;50.844;5.304;2022-07-23T06:12:35;19.10;99.90
29939;DHT22;16799;50.844;5.304;2022-07-23T06:15:01;19.30;99.90
29939;DHT22;16799;50.844;5.304;2022-07-23T06:17:28;19.30;99.90
29939;DHT22;16799;50.844;5.304;2022-07-23T06:19:54;19.50;99.90
29939;DHT22;16799;50.844;5.304;2022-07-23T06:22:20;19.70;99.90
29939;DHT22;16799;50.844;5.304;2022-07-23T06:24:46;19.80;99.90
29939;DHT22;16799;50.844;5.304;2022-07-23T06:27:12;20.10;99.90
29939;DHT22;16799;50.844;5.304;2022-07-23T06:29:37;20.20;99.90
29939;DHT22;16799;50.844;5.304;2022-07-23T06:32:03;20.20;99.90
29939;DHT22;16799;50.844;5.304;2022-07-23T06:34:29;20.40;99.90
29939;DHT22;16799;50.844;5.304;2022-07-23T06:36:54;20.50;99.90
29939;DHT22;16799;50.844;5.304;2022-07-23T06:39:20;20.40;99.90
29939;DHT22;16799;50.844;5.304;2022-07-23T06:41:46;20.30;99.90
29939;DHT22;16799;50.844;5.304;2022-07-23T06:44:11;20.50;99.90
29939;DHT22;16799;50.844;5.304;2022-07-23T06:46:37;20.50;99.90
29939;DHT22;16799;50.844;5.304;2022-07-23T06:49:03;20.60;99.90
29939;DHT22;16799;50.844;5.304;2022-07-23T06:51:29;20.80;99.90
29939;DHT22;16799;50.844;5.304;2022-07-23T06:53:55;20.80;99.90
29939;DHT22;16799;50.844;5.304;2022-07-23T06:56:21;21.00;99.90
29939;DHT22;16799;50.844;5.304;2022-07-23T06:58:46;21.10;99.90
29939;DHT22;16799;50.844;5.304;2022-07-23T07:01:12;20.70;99.90
29939;DHT22;16799;50.844;5.304;2022-07-23T07:03:38;20.60;99.90
29939;DHT22;16799;50.844;5.304;2022-07-23T07:06:04;20.70;99.90
29939;DHT22;16799;50.844;5.304;2022-07-23T07:08:30;20.80;99.90
29939;DHT22;16799;50.844;5.304;2022-07-23T07:10:55;21.00;99.90
29939;DHT22;16799;50.844;5.304;2022-07-23T07:13:21;21.10;99.90
29939;DHT22;16799;50.844;5.304;2022-07-23T07:15:47;21.20;99.90
29939;DHT22;16799;50.844;5.304;2022-07-23T07:18:12;21.40;99.90
29939;DHT22;16799;50.844;5.304;2022-07-23T07:20:39;21.50;99.90
29939;DHT22;16799;50.844;5.304;2022-07-23T07:23:04;21.70;99.90
29939;DHT22;16799;50.844;5.304;2022-07-23T07:25:30;21.70;99.90
29939;DHT22;16799;50.844;5.304;2022-07-23T07:27:56;21.90;99.90
29939;DHT22;16799;50.844;5.304;2022-07-23T07:30:22;22.00;99.90
29939;DHT22;16799;50.844;5.304;2022-07-23T07:32:47;22.20;99.90
29939;DHT22;16799;50.844;5.304;2022-07-23T07:35:13;22.40;99.90
29939;DHT22;16799;50.844;5.304;2022-07-23T07:37:39;22.50;99.90
29939;DHT22;16799;50.844;5.304;2022-07-23T07:40:05;22.60;99.90
29939;DHT22;16799;50.844;5.304;2022-07-23T07:42:31;22.70;99.90
29939;DHT22;16799;50.844;5.304;2022-07-23T07:44:58;22.80;99.90
29939;DHT22;16799;50.844;5.304;2022-07-23T07:47:23;22.70;99.90
29939;DHT22;16799;50.844;5.304;2022-07-23T07:49:49;22.80;99.90
29939;DHT22;16799;50.844;5.304;2022-07-23T07:52:14;22.60;99.90
29939;DHT22;16799;50.844;5.304;2022-07-23T07:54:40;22.90;99.90
29939;DHT22;16799;50.844;5.304;2022-07-23T07:57:06;22.80;99.90
29939;DHT22;16799;50.844;5.304;2022-07-23T07:59:31;22.80;99.90
29939;DHT22;16799;50.844;5.304;2022-07-23T08:01:57;23.10;99.90
29939;DHT22;16799;50.844;5.304;2022-07-23T08:04:22;23.20;99.90
29939;DHT22;16799;50.844;5.304;2022-07-23T08:06:48;23.50;99.90
29939;DHT22;16799;50.844;5.304;2022-07-23T08:09:14;23.60;99.90
29939;DHT22;16799;50.844;5.304;2022-07-23T08:11:39;23.60;99.30
29939;DHT22;16799;50.844;5.304;2022-07-23T08:14:05;23.80;99.90
29939;DHT22;16799;50.844;5.304;2022-07-23T08:16:31;24.30;99.90
29939;DHT22;16799;50.844;5.304;2022-07-23T08:18:56;24.40;97.40
29939;DHT22;16799;50.844;5.304;2022-07-23T08:21:22;24.40;96.80
29939;DHT22;16799;50.844;5.304;2022-07-23T08:23:48;24.20;97.60
29939;DHT22;16799;50.844;5.304;2022-07-23T08:26:13;24.30;98.60
29939;DHT22;16799;50.844;5.304;2022-07-23T08:28:39;24.30;97.80
29939;DHT22;16799;50.844;5.304;2022-07-23T08:31:05;24.70;97.30
29939;DHT22;16799;50.844;5.304;2022-07-23T08:33:33;25.10;96.50
29939;DHT22;16799;50.844;5.304;2022-07-23T08:36:00;25.00;93.30
29939;DHT22;16799;50.844;5.304;2022-07-23T08:38:27;24.90;94.00
29939;DHT22;16799;50.844;5.304;2022-07-23T08:40:55;24.70;94.60
29939;DHT22;16799;50.844;5.304;2022-07-23T08:43:27;24.70;94.30
29939;DHT22;16799;50.844;5.304;2022-07-23T08:45:54;24.20;95.40
29939;DHT22;16799;50.844;5.304;2022-07-23T08:48:25;24.50;94.80
29939;DHT22;16799;50.844;5.304;2022-07-23T08:50:53;24.60;93.40
29939;DHT22;16799;50.844;5.304;2022-07-23T08:53:20;24.60;92.90
29939;DHT22;16799;50.844;5.304;2022-07-23T08:55:48;24.30;93.10
29939;DHT22;16799;50.844;5.304;2022-07-23T08:58:14;24.10;93.10
29939;DHT22;16799;50.844;5.304;2022-07-23T09:00:41;24.40;92.50
29939;DHT22;16799;50.844;5.304;2022-07-23T09:03:06;24.40;92.20
29939;DHT22;16799;50.844;5.304;2022-07-23T09:05:32;24.50;91.50
29939;DHT22;16799;50.844;5.304;2022-07-23T09:08:21;24.70;94.10
29939;DHT22;16799;50.844;5.304;2022-07-23T09:10:57;25.20;93.00
29939;DHT22;16799;50.844;5.304;2022-07-23T09:16:23;25.90;91.00
29939;DHT22;16799;50.844;5.304;2022-07-23T09:18:53;26.20;90.70
29939;DHT22;16799;50.844;5.304;2022-07-23T09:23:55;26.30;89.00
29939;DHT22;16799;50.844;5.304;2022-07-23T09:26:34;26.30;91.60
29939;DHT22;16799;50.844;5.304;2022-07-23T09:29:19;26.60;91.20
29939;DHT22;16799;50.844;5.304;2022-07-23T09:31:56;26.70;88.80
29939;DHT22;16799;50.844;5.304;2022-07-23T09:34:30;26.60;90.30
29939;DHT22;16799;50.844;5.304;2022-07-23T09:37:17;26.70;90.60
29939;DHT22;16799;50.844;5.304;2022-07-23T09:39:45;26.90;87.70
29939;DHT22;16799;50.844;5.304;2022-07-23T09:42:19;27.30;88.50
29939;DHT22;16799;50.844;5.304;2022-07-23T09:44:53;27.50;85.50
29939;DHT22;16799;50.844;5.304;2022-07-23T09:47:20;27.60;88.70
29939;DHT22;16799;50.844;5.304;2022-07-23T09:50:05;27.60;84.30
29939;DHT22;16799;50.844;5.304;2022-07-23T09:52:35;27.90;86.30
29939;DHT22;16799;50.844;5.304;2022-07-23T09:55:05;28.10;83.10
29939;DHT22;16799;50.844;5.304;2022-07-23T09:57:32;28.10;81.30
29939;DHT22;16799;50.844;5.304;2022-07-23T10:00:01;28.00;82.80
29939;DHT22;16799;50.844;5.304;2022-07-23T10:02:28;28.10;85.80
29939;DHT22;16799;50.844;5.304;2022-07-23T10:04:57;28.30;82.10
29939;DHT22;16799;50.844;5.304;2022-07-23T10:07:24;28.00;80.80
29939;DHT22;16799;50.844;5.304;2022-07-23T10:09:52;27.90;81.00
29939;DHT22;16799;50.844;5.304;2022-07-23T10:12:18;28.00;80.00
29939;DHT22;16799;50.844;5.304;2022-07-23T10:14:52;28.00;79.70
29939;DHT22;16799;50.844;5.304;2022-07-23T10:17:18;27.70;79.90
29939;DHT22;16799;50.844;5.304;2022-07-23T10:19:44;28.10;81.10
29939;DHT22;16799;50.844;5.304;2022-07-23T10:22:12;28.30;78.80
29939;DHT22;16799;50.844;5.304;2022-07-23T10:30:10;27.80;79.20
29939;DHT22;16799;50.844;5.304;2022-07-23T10:35:40;27.80;79.20
29939;DHT22;16799;50.844;5.304;2022-07-23T10:38:13;27.60;77.30
29939;DHT22;16799;50.844;5.304;2022-07-23T10:40:54;28.20;78.40
29939;DHT22;16799;50.844;5.304;2022-07-23T10:43:21;29.10;76.00
29939;DHT22;16799;50.844;5.304;2022-07-23T10:45:46;30.00;75.70
29939;DHT22;16799;50.844;5.304;2022-07-23T10:48:23;31.00;74.20
29939;DHT22;16799;50.844;5.304;2022-07-23T10:51:13;31.70;70.70
29939;DHT22;16799;50.844;5.304;2022-07-23T10:59:14;33.30;61.20
29939;DHT22;16799;50.844;5.304;2022-07-23T11:01:40;34.20;60.70
29939;DHT22;16799;50.844;5.304;2022-07-23T11:04:06;35.30;56.60
29939;DHT22;16799;50.844;5.304;2022-07-23T11:09:27;36.10;51.30
29939;DHT22;16799;50.844;5.304;2022-07-23T11:15:04;36.50;50.20
29939;DHT22;16799;50.844;5.304;2022-07-23T11:17:31;35.50;49.80
29939;DHT22;16799;50.844;5.304;2022-07-23T11:22:55;37.00;50.60
29939;DHT22;16799;50.844;5.304;2022-07-23T11:27:48;38.10;50.70
29939;DHT22;16799;50.844;5.304;2022-07-23T11:32:54;39.40;46.70
29939;DHT22;16799;50.844;5.304;2022-07-23T11:37:47;39.40;46.70
29939;DHT22;16799;50.844;5.304;2022-07-23T11:40:15;39.90;44.20
29939;DHT22;16799;50.844;5.304;2022-07-23T11:43:02;40.40;43.80
29939;DHT22;16799;50.844;5.304;2022-07-23T11:45:40;41.00;43.60
29939;DHT22;16799;50.844;5.304;2022-07-23T11:48:17;41.00;42.60
29939;DHT22;16799;50.844;5.304;2022-07-23T11:50:43;41.40;41.50
29939;DHT22;16799;50.844;5.304;2022-07-23T11:53:09;40.90;41.00
29939;DHT22;16799;50.844;5.304;2022-07-23T11:55:34;40.80;42.00
29939;DHT22;16799;50.844;5.304;2022-07-23T11:58:00;40.90;41.90
29939;DHT22;16799;50.844;5.304;2022-07-23T12:00:29;38.70;42.50
29939;DHT22;16799;50.844;5.304;2022-07-23T12:02:59;37.50;45.00
29939;DHT22;16799;50.844;5.304;2022-07-23T12:05:32;39.00;43.90
29939;DHT22;16799;50.844;5.304;2022-07-23T12:07:58;40.00;42.70
29939;DHT22;16799;50.844;5.304;2022-07-23T12:10:26;39.70;41.90
29939;DHT22;16799;50.844;5.304;2022-07-23T12:13:01;38.50;43.30
29939;DHT22;16799;50.844;5.304;2022-07-23T12:15:36;39.40;43.40
29939;DHT22;16799;50.844;5.304;2022-07-23T12:18:05;40.00;45.50
29939;DHT22;16799;50.844;5.304;2022-07-23T12:20:34;38.90;44.70
29939;DHT22;16799;50.844;5.304;2022-07-23T12:23:04;40.00;43.80
29939;DHT22;16799;50.844;5.304;2022-07-23T12:25:36;40.10;42.40
29939;DHT22;16799;50.844;5.304;2022-07-23T12:28:07;40.20;40.80
29939;DHT22;16799;50.844;5.304;2022-07-23T12:30:34;40.30;40.80
29939;DHT22;16799;50.844;5.304;2022-07-23T12:33:03;41.30;40.80
29939;DHT22;16799;50.844;5.304;2022-07-23T12:35:37;42.20;41.30
29939;DHT22;16799;50.844;5.304;2022-07-23T12:38:08;43.20;37.90
29939;DHT22;16799;50.844;5.304;2022-07-23T12:40:45;43.60;38.90
29939;DHT22;16799;50.844;5.304;2022-07-23T12:43:20;43.70;35.70
29939;DHT22;16799;50.844;5.304;2022-07-23T12:45:54;43.40;36.40
29939;DHT22;16799;50.844;5.304;2022-07-23T12:50:53;42.90;36.20
29939;DHT22;16799;50.844;5.304;2022-07-23T12:53:22;42.20;36.40
29939;DHT22;16799;50.844;5.304;2022-07-23T12:55:49;42.00;36.50
29939;DHT22;16799;50.844;5.304;2022-07-23T12:58:17;41.70;36.80
29939;DHT22;16799;50.844;5.304;2022-07-23T13:01:31;40.50;37.90
29939;DHT22;16799;50.844;5.304;2022-07-23T13:04:10;40.60;38.60
29939;DHT22;16799;50.844;5.304;2022-07-23T13:06:39;37.70;41.10
29939;DHT22;16799;50.844;5.304;2022-07-23T13:09:07;36.20;42.00
29939;DHT22;16799;50.844;5.304;2022-07-23T13:11:33;36.10;42.30
29939;DHT22;16799;50.844;5.304;2022-07-23T13:13:59;36.50;42.40
29939;DHT22;16799;50.844;5.304;2022-07-23T13:16:27;37.50;42.30
29939;DHT22;16799;50.844;5.304;2022-07-23T13:18:52;38.70;40.90
29939;DHT22;16799;50.844;5.304;2022-07-23T13:21:18;39.50;39.80
29939;DHT22;16799;50.844;5.304;2022-07-23T13:23:44;40.20;40.40
29939;DHT22;16799;50.844;5.304;2022-07-23T13:26:10;40.70;39.10
29939;DHT22;16799;50.844;5.304;2022-07-23T13:28:35;38.90;39.30
29939;DHT22;16799;50.844;5.304;2022-07-23T13:31:01;37.40;41.20
29939;DHT22;16799;50.844;5.304;2022-07-23T13:33:27;36.50;41.30
29939;DHT22;16799;50.844;5.304;2022-07-23T13:35:52;36.60;42.20
29939;DHT22;16799;50.844;5.304;2022-07-23T13:38:20;38.20;41.20
29939;DHT22;16799;50.844;5.304;2022-07-23T13:40:47;38.80;39.10
29939;DHT22;16799;50.844;5.304;2022-07-23T13:43:16;39.30;40.30
29939;DHT22;16799;50.844;5.304;2022-07-23T13:45:42;40.80;38.00
29939;DHT22;16799;50.844;5.304;2022-07-23T13:48:10;42.30;36.70
29939;DHT22;16799;50.844;5.304;2022-07-23T13:50:37;42.70;38.20
29939;DHT22;16799;50.844;5.304;2022-07-23T13:53:04;43.10;36.10
29939;DHT22;16799;50.844;5.304;2022-07-23T13:55:32;43.90;35.00
29939;DHT22;16799;50.844;5.304;2022-07-23T13:57:58;42.20;37.00
29939;DHT22;16799;50.844;5.304;2022-07-23T14:00:24;41.50;37.40
29939;DHT22;16799;50.844;5.304;2022-07-23T14:02:50;38.00;39.30
29939;DHT22;16799;50.844;5.304;2022-07-23T14:05:16;37.70;40.10
29939;DHT22;16799;50.844;5.304;2022-07-23T14:07:41;38.90;39.20
29939;DHT22;16799;50.844;5.304;2022-07-23T14:10:10;40.50;37.90
29939;DHT22;16799;50.844;5.304;2022-07-23T14:12:36;40.50;37.20
29939;DHT22;16799;50.844;5.304;2022-07-23T14:15:04;39.60;38.70
29939;DHT22;16799;50.844;5.304;2022-07-23T14:17:30;37.70;39.60
29939;DHT22;16799;50.844;5.304;2022-07-23T14:19:57;35.90;41.40
29939;DHT22;16799;50.844;5.304;2022-07-23T14:22:22;36.80;42.90
29939;DHT22;16799;50.844;5.304;2022-07-23T14:24:49;39.30;40.20
29939;DHT22;16799;50.844;5.304;2022-07-23T14:27:14;41.80;37.90
29939;DHT22;16799;50.844;5.304;2022-07-23T14:29:40;43.00;36.10
29939;DHT22;16799;50.844;5.304;2022-07-23T14:32:06;42.50;37.50
29939;DHT22;16799;50.844;5.304;2022-07-23T14:34:32;42.40;35.80
29939;DHT22;16799;50.844;5.304;2022-07-23T14:36:58;40.90;37.40
29939;DHT22;16799;50.844;5.304;2022-07-23T14:39:25;39.00;38.70
29939;DHT22;16799;50.844;5.304;2022-07-23T14:41:51;36.60;41.20
29939;DHT22;16799;50.844;5.304;2022-07-23T14:44:17;35.90;41.40
29939;DHT22;16799;50.844;5.304;2022-07-23T14:46:42;36.10;41.30
29939;DHT22;16799;50.844;5.304;2022-07-23T14:49:08;37.40;40.40
29939;DHT22;16799;50.844;5.304;2022-07-23T14:51:34;37.60;40.50
29939;DHT22;16799;50.844;5.304;2022-07-23T14:54:00;38.10;40.30
29939;DHT22;16799;50.844;5.304;2022-07-23T14:56:25;38.50;39.10
29939;DHT22;16799;50.844;5.304;2022-07-23T14:58:51;39.00;38.80
29939;DHT22;16799;50.844;5.304;2022-07-23T15:01:16;39.60;39.30
29939;DHT22;16799;50.844;5.304;2022-07-23T15:03:42;40.50;37.90
29939;DHT22;16799;50.844;5.304;2022-07-23T15:06:08;40.60;37.10
29939;DHT22;16799;50.844;5.304;2022-07-23T15:08:34;40.00;36.70
29939;DHT22;16799;50.844;5.304;2022-07-23T15:11:00;37.60;39.30
29939;DHT22;16799;50.844;5.304;2022-07-23T15:13:26;37.70;42.30
29939;DHT22;16799;50.844;5.304;2022-07-23T15:15:51;38.80;40.80
29939;DHT22;16799;50.844;5.304;2022-07-23T15:18:18;39.60;39.60
29939;DHT22;16799;50.844;5.304;2022-07-23T15:20:43;39.60;38.00
29939;DHT22;16799;50.844;5.304;2022-07-23T15:23:09;39.70;38.20
29939;DHT22;16799;50.844;5.304;2022-07-23T15:25:35;40.30;38.50
29939;DHT22;16799;50.844;5.304;2022-07-23T15:28:01;40.70;38.40
29939;DHT22;16799;50.844;5.304;2022-07-23T15:30:27;41.00;37.80
29939;DHT22;16799;50.844;5.304;2022-07-23T15:32:53;40.40;38.00
29939;DHT22;16799;50.844;5.304;2022-07-23T15:35:19;40.40;37.70
29939;DHT22;16799;50.844;5.304;2022-07-23T15:37:45;40.60;37.90
29939;DHT22;16799;50.844;5.304;2022-07-23T15:40:11;40.70;38.90
29939;DHT22;16799;50.844;5.304;2022-07-23T15:42:37;40.50;37.50
29939;DHT22;16799;50.844;5.304;2022-07-23T15:45:04;39.20;37.60
29939;DHT22;16799;50.844;5.304;2022-07-23T15:47:30;38.40;39.80
29939;DHT22;16799;50.844;5.304;2022-07-23T15:49:55;38.70;38.70
29939;DHT22;16799;50.844;5.304;2022-07-23T15:52:21;39.10;40.60
29939;DHT22;16799;50.844;5.304;2022-07-23T15:54:47;39.60;39.70
29939;DHT22;16799;50.844;5.304;2022-07-23T15:57:12;40.00;37.90
29939;DHT22;16799;50.844;5.304;2022-07-23T15:59:38;39.00;39.30
29939;DHT22;16799;50.844;5.304;2022-07-23T16:02:04;39.80;38.30
29939;DHT22;16799;50.844;5.304;2022-07-23T16:04:30;40.70;38.00
29939;DHT22;16799;50.844;5.304;2022-07-23T16:06:57;40.90;37.80